sensor_id;sensor_type;location;lat;lon;timestamp;P1;durP1;ratioP1;P2;durP2;ratioP2
44987;SDS011;35735;52.226;21.254;2022-10-16T00:03:06;20.15;;;14.57;;
44987;SDS011;35735;52.226;21.254;2022-10-16T00:08:08;26.02;;;15.88;;
44987;SDS011;35735;52.226;21.254;2022-10-16T00:13:10;22.83;;;15.07;;
44987;SDS011;35735;52.226;21.254;2022-10-16T00:18:11;23.05;;;16.10;;
44987;SDS011;35735;52.226;21.254;2022-10-16T00:23:12;23.12;;;16.25;;
44987;SDS011;35735;52.226;21.254;2022-10-16T00:28:12;22.87;;;16.58;;
44987;SDS011;35735;52.226;21.254;2022-10-16T00:33:13;21.55;;;16.30;;
44987;SDS011;35735;52.226;21.254;2022-10-16T00:38:13;21.00;;;16.20;;
44987;SDS011;35735;52.226;21.254;2022-10-16T00:43:32;22.42;;;16.37;;
44987;SDS011;35735;52.226;21.254;2022-10-16T00:48:48;21.75;;;16.33;;
44987;SDS011;35735;52.226;21.254;2022-10-16T00:54:03;21.20;;;16.80;;
44987;SDS011;35735;52.226;21.254;2022-10-16T00:59:15;21.73;;;16.60;;
44987;SDS011;35735;52.226;21.254;2022-10-16T01:04:38;23.60;;;17.92;;
44987;SDS011;35735;52.226;21.254;2022-10-16T01:10:02;24.33;;;17.42;;
44987;SDS011;35735;52.226;21.254;2022-10-16T01:21:00;25.98;;;16.90;;
44987;SDS011;35735;52.226;21.254;2022-10-16T01:26:30;22.40;;;16.33;;
44987;SDS011;35735;52.226;21.254;2022-10-16T01:32:15;25.75;;;17.08;;
44987;SDS011;35735;52.226;21.254;2022-10-16T01:37:36;21.12;;;15.82;;
44987;SDS011;35735;52.226;21.254;2022-10-16T01:42:42;22.60;;;17.40;;
44987;SDS011;35735;52.226;21.254;2022-10-16T01:47:49;23.17;;;16.80;;
44987;SDS011;35735;52.226;21.254;2022-10-16T01:52:51;21.33;;;17.20;;
44987;SDS011;35735;52.226;21.254;2022-10-16T01:57:55;21.58;;;17.40;;
44987;SDS011;35735;52.226;21.254;2022-10-16T02:02:58;22.45;;;16.45;;
44987;SDS011;35735;52.226;21.254;2022-10-16T02:08:02;24.17;;;17.77;;
44987;SDS011;35735;52.226;21.254;2022-10-16T02:13:07;22.17;;;17.12;;
44987;SDS011;35735;52.226;21.254;2022-10-16T02:18:14;22.33;;;17.40;;
44987;SDS011;35735;52.226;21.254;2022-10-16T02:23:17;23.67;;;17.77;;
44987;SDS011;35735;52.226;21.254;2022-10-16T02:28:48;22.37;;;17.62;;
44987;SDS011;35735;52.226;21.254;2022-10-16T02:33:56;29.35;;;18.08;;
44987;SDS011;35735;52.226;21.254;2022-10-16T02:38:59;22.20;;;17.27;;
44987;SDS011;35735;52.226;21.254;2022-10-16T02:44:02;25.88;;;17.12;;
44987;SDS011;35735;52.226;21.254;2022-10-16T02:49:03;24.80;;;17.35;;
44987;SDS011;35735;52.226;21.254;2022-10-16T02:54:03;20.25;;;16.00;;
44987;SDS011;35735;52.226;21.254;2022-10-16T02:59:04;26.98;;;17.55;;
44987;SDS011;35735;52.226;21.254;2022-10-16T03:04:05;22.27;;;17.00;;
44987;SDS011;35735;52.226;21.254;2022-10-16T03:09:05;22.13;;;16.85;;
44987;SDS011;35735;52.226;21.254;2022-10-16T03:14:06;22.23;;;16.23;;
44987;SDS011;35735;52.226;21.254;2022-10-16T03:19:06;20.40;;;16.00;;
44987;SDS011;35735;52.226;21.254;2022-10-16T03:24:07;22.98;;;15.90;;
44987;SDS011;35735;52.226;21.254;2022-10-16T03:29:07;22.02;;;16.25;;
44987;SDS011;35735;52.226;21.254;2022-10-16T03:34:08;25.48;;;16.58;;
44987;SDS011;35735;52.226;21.254;2022-10-16T03:39:09;21.27;;;15.65;;
44987;SDS011;35735;52.226;21.254;2022-10-16T03:44:09;22.27;;;15.40;;
44987;SDS011;35735;52.226;21.254;2022-10-16T03:49:10;21.23;;;15.60;;
44987;SDS011;35735;52.226;21.254;2022-10-16T03:54:10;18.37;;;14.80;;
44987;SDS011;35735;52.226;21.254;2022-10-16T03:59:11;21.95;;;15.68;;
44987;SDS011;35735;52.226;21.254;2022-10-16T04:04:11;20.35;;;14.93;;
44987;SDS011;35735;52.226;21.254;2022-10-16T04:09:12;20.67;;;15.27;;
44987;SDS011;35735;52.226;21.254;2022-10-16T04:14:12;19.17;;;14.52;;
44987;SDS011;35735;52.226;21.254;2022-10-16T04:19:13;21.73;;;15.55;;
44987;SDS011;35735;52.226;21.254;2022-10-16T04:24:13;21.52;;;14.50;;
44987;SDS011;35735;52.226;21.254;2022-10-16T04:29:14;18.92;;;13.90;;
44987;SDS011;35735;52.226;21.254;2022-10-16T04:34:14;25.15;;;14.05;;
44987;SDS011;35735;52.226;21.254;2022-10-16T04:39:15;21.70;;;14.68;;
44987;SDS011;35735;52.226;21.254;2022-10-16T04:44:17;22.37;;;14.55;;
44987;SDS011;35735;52.226;21.254;2022-10-16T04:49:17;18.87;;;13.57;;
44987;SDS011;35735;52.226;21.254;2022-10-16T04:54:18;22.45;;;14.52;;
44987;SDS011;35735;52.226;21.254;2022-10-16T04:59:19;26.77;;;14.35;;
44987;SDS011;35735;52.226;21.254;2022-10-16T05:04:20;21.75;;;14.13;;
44987;SDS011;35735;52.226;21.254;2022-10-16T05:09:21;20.62;;;14.45;;
44987;SDS011;35735;52.226;21.254;2022-10-16T05:14:22;18.85;;;14.35;;
44987;SDS011;35735;52.226;21.254;2022-10-16T05:19:22;19.73;;;15.05;;
44987;SDS011;35735;52.226;21.254;2022-10-16T05:24:23;21.87;;;14.85;;
44987;SDS011;35735;52.226;21.254;2022-10-16T05:29:23;18.42;;;14.43;;
44987;SDS011;35735;52.226;21.254;2022-10-16T05:34:24;18.83;;;13.38;;
44987;SDS011;35735;52.226;21.254;2022-10-16T05:39:24;23.08;;;14.55;;
44987;SDS011;35735;52.226;21.254;2022-10-16T05:44:25;19.10;;;14.15;;
44987;SDS011;35735;52.226;21.254;2022-10-16T05:49:27;19.65;;;14.13;;
44987;SDS011;35735;52.226;21.254;2022-10-16T05:54:27;18.00;;;13.82;;
44987;SDS011;35735;52.226;21.254;2022-10-16T05:59:28;17.05;;;13.20;;
44987;SDS011;35735;52.226;21.254;2022-10-16T06:04:28;19.12;;;14.27;;
44987;SDS011;35735;52.226;21.254;2022-10-16T06:09:29;18.25;;;13.07;;
44987;SDS011;35735;52.226;21.254;2022-10-16T06:14:29;17.98;;;13.35;;
44987;SDS011;35735;52.226;21.254;2022-10-16T06:19:30;19.02;;;12.82;;
44987;SDS011;35735;52.226;21.254;2022-10-16T06:24:30;17.12;;;13.30;;
44987;SDS011;35735;52.226;21.254;2022-10-16T06:29:31;21.20;;;12.65;;
44987;SDS011;35735;52.226;21.254;2022-10-16T06:34:32;16.98;;;13.23;;
44987;SDS011;35735;52.226;21.254;2022-10-16T06:39:32;15.80;;;12.50;;
44987;SDS011;35735;52.226;21.254;2022-10-16T06:44:33;16.37;;;12.15;;
44987;SDS011;35735;52.226;21.254;2022-10-16T06:49:33;15.88;;;12.07;;
44987;SDS011;35735;52.226;21.254;2022-10-16T06:54:34;17.25;;;12.05;;
44987;SDS011;35735;52.226;21.254;2022-10-16T06:59:34;16.80;;;12.57;;
44987;SDS011;35735;52.226;21.254;2022-10-16T07:04:35;16.98;;;12.50;;
44987;SDS011;35735;52.226;21.254;2022-10-16T07:09:36;14.55;;;12.00;;
44987;SDS011;35735;52.226;21.254;2022-10-16T07:14:37;16.65;;;12.95;;
44987;SDS011;35735;52.226;21.254;2022-10-16T07:19:37;13.77;;;12.05;;
44987;SDS011;35735;52.226;21.254;2022-10-16T07:24:38;15.52;;;11.80;;
44987;SDS011;35735;52.226;21.254;2022-10-16T07:29:38;16.15;;;12.18;;
44987;SDS011;35735;52.226;21.254;2022-10-16T07:34:39;15.63;;;11.95;;
44987;SDS011;35735;52.226;21.254;2022-10-16T07:39:39;13.93;;;11.35;;
44987;SDS011;35735;52.226;21.254;2022-10-16T07:44:40;16.27;;;12.10;;
44987;SDS011;35735;52.226;21.254;2022-10-16T07:49:40;15.38;;;10.98;;
44987;SDS011;35735;52.226;21.254;2022-10-16T07:54:41;17.00;;;11.15;;
44987;SDS011;35735;52.226;21.254;2022-10-16T07:59:41;14.45;;;11.55;;
44987;SDS011;35735;52.226;21.254;2022-10-16T08:04:42;13.52;;;10.75;;
44987;SDS011;35735;52.226;21.254;2022-10-16T08:09:43;14.60;;;11.88;;
44987;SDS011;35735;52.226;21.254;2022-10-16T08:14:43;16.45;;;10.82;;
44987;SDS011;35735;52.226;21.254;2022-10-16T08:19:47;14.32;;;11.02;;
44987;SDS011;35735;52.226;21.254;2022-10-16T08:24:48;14.20;;;10.68;;
44987;SDS011;35735;52.226;21.254;2022-10-16T08:29:48;18.60;;;11.12;;
44987;SDS011;35735;52.226;21.254;2022-10-16T08:34:49;13.43;;;10.35;;
44987;SDS011;35735;52.226;21.254;2022-10-16T08:39:50;17.52;;;11.65;;
44987;SDS011;35735;52.226;21.254;2022-10-16T08:45:02;12.80;;;9.73;;
44987;SDS011;35735;52.226;21.254;2022-10-16T08:50:26;15.15;;;11.18;;
44987;SDS011;35735;52.226;21.254;2022-10-16T08:55:31;14.35;;;10.43;;
44987;SDS011;35735;52.226;21.254;2022-10-16T09:00:43;13.02;;;9.77;;
44987;SDS011;35735;52.226;21.254;2022-10-16T09:11:36;14.35;;;9.52;;
44987;SDS011;35735;52.226;21.254;2022-10-16T09:16:53;14.65;;;9.55;;
44987;SDS011;35735;52.226;21.254;2022-10-16T09:22:02;11.57;;;9.52;;
44987;SDS011;35735;52.226;21.254;2022-10-16T09:27:14;13.25;;;9.48;;
44987;SDS011;35735;52.226;21.254;2022-10-16T09:32:16;14.98;;;10.10;;
44987;SDS011;35735;52.226;21.254;2022-10-16T09:37:20;12.23;;;9.60;;
44987;SDS011;35735;52.226;21.254;2022-10-16T09:42:27;12.30;;;9.65;;
44987;SDS011;35735;52.226;21.254;2022-10-16T09:47:32;12.15;;;9.85;;
44987;SDS011;35735;52.226;21.254;2022-10-16T09:52:41;12.50;;;9.50;;
44987;SDS011;35735;52.226;21.254;2022-10-16T09:57:54;12.27;;;9.38;;
44987;SDS011;35735;52.226;21.254;2022-10-16T10:02:55;13.77;;;8.88;;
44987;SDS011;35735;52.226;21.254;2022-10-16T10:07:59;16.55;;;9.60;;
44987;SDS011;35735;52.226;21.254;2022-10-16T10:13:02;12.05;;;9.70;;
44987;SDS011;35735;52.226;21.254;2022-10-16T10:18:15;12.85;;;9.20;;
44987;SDS011;35735;52.226;21.254;2022-10-16T10:23:20;11.55;;;8.82;;
44987;SDS011;35735;52.226;21.254;2022-10-16T10:28:34;9.95;;;8.52;;
44987;SDS011;35735;52.226;21.254;2022-10-16T10:39:38;13.10;;;8.95;;
44987;SDS011;35735;52.226;21.254;2022-10-16T10:44:55;11.18;;;9.18;;
44987;SDS011;35735;52.226;21.254;2022-10-16T10:55:45;10.35;;;8.57;;
44987;SDS011;35735;52.226;21.254;2022-10-16T11:01:13;14.82;;;9.25;;
44987;SDS011;35735;52.226;21.254;2022-10-16T11:06:17;11.25;;;8.88;;
44987;SDS011;35735;52.226;21.254;2022-10-16T11:11:34;12.60;;;8.90;;
44987;SDS011;35735;52.226;21.254;2022-10-16T11:17:05;10.05;;;8.38;;
44987;SDS011;35735;52.226;21.254;2022-10-16T11:22:22;10.80;;;8.52;;
44987;SDS011;35735;52.226;21.254;2022-10-16T11:27:34;8.60;;;7.65;;
44987;SDS011;35735;52.226;21.254;2022-10-16T11:33:24;10.88;;;8.07;;
44987;SDS011;35735;52.226;21.254;2022-10-16T11:38:10;12.88;;;8.43;;
44987;SDS011;35735;52.226;21.254;2022-10-16T11:43:21;11.18;;;7.87;;
44987;SDS011;35735;52.226;21.254;2022-10-16T11:48:37;10.80;;;7.37;;
44987;SDS011;35735;52.226;21.254;2022-10-16T11:59:23;11.95;;;7.85;;
44987;SDS011;35735;52.226;21.254;2022-10-16T12:04:41;9.30;;;7.47;;
44987;SDS011;35735;52.226;21.254;2022-10-16T12:09:48;13.80;;;7.87;;
44987;SDS011;35735;52.226;21.254;2022-10-16T12:14:59;11.00;;;8.00;;
44987;SDS011;35735;52.226;21.254;2022-10-16T12:20:24;8.52;;;7.40;;
44987;SDS011;35735;52.226;21.254;2022-10-16T12:25:37;8.25;;;6.45;;
44987;SDS011;35735;52.226;21.254;2022-10-16T12:30:40;9.43;;;7.68;;
44987;SDS011;35735;52.226;21.254;2022-10-16T12:35:43;10.18;;;7.50;;
44987;SDS011;35735;52.226;21.254;2022-10-16T12:40:44;8.70;;;7.43;;
44987;SDS011;35735;52.226;21.254;2022-10-16T12:46:38;9.27;;;7.50;;
44987;SDS011;35735;52.226;21.254;2022-10-16T12:51:23;8.77;;;7.37;;
44987;SDS011;35735;52.226;21.254;2022-10-16T13:19:06;12.63;;;7.93;;
44987;SDS011;35735;52.226;21.254;2022-10-16T13:24:46;9.93;;;7.20;;
44987;SDS011;35735;52.226;21.254;2022-10-16T13:30:25;7.90;;;7.10;;
44987;SDS011;35735;52.226;21.254;2022-10-16T13:35:30;8.32;;;7.35;;
44987;SDS011;35735;52.226;21.254;2022-10-16T13:40:33;9.15;;;7.68;;
44987;SDS011;35735;52.226;21.254;2022-10-16T13:45:33;12.77;;;6.68;;
44987;SDS011;35735;52.226;21.254;2022-10-16T13:50:34;10.23;;;7.57;;
44987;SDS011;35735;52.226;21.254;2022-10-16T13:55:34;9.48;;;7.75;;
44987;SDS011;35735;52.226;21.254;2022-10-16T14:00:35;10.57;;;6.95;;
44987;SDS011;35735;52.226;21.254;2022-10-16T14:05:35;9.60;;;8.05;;
44987;SDS011;35735;52.226;21.254;2022-10-16T14:10:48;18.05;;;7.70;;
44987;SDS011;35735;52.226;21.254;2022-10-16T14:15:51;9.15;;;7.50;;
44987;SDS011;35735;52.226;21.254;2022-10-16T14:20:52;8.77;;;7.60;;
44987;SDS011;35735;52.226;21.254;2022-10-16T14:25:53;9.45;;;7.80;;
44987;SDS011;35735;52.226;21.254;2022-10-16T14:30:55;15.88;;;8.43;;
44987;SDS011;35735;52.226;21.254;2022-10-16T14:35:59;11.60;;;7.72;;
44987;SDS011;35735;52.226;21.254;2022-10-16T14:41:09;10.90;;;7.93;;
44987;SDS011;35735;52.226;21.254;2022-10-16T14:51:19;11.93;;;8.27;;
44987;SDS011;35735;52.226;21.254;2022-10-16T14:56:21;10.88;;;8.20;;
44987;SDS011;35735;52.226;21.254;2022-10-16T15:01:24;11.57;;;7.60;;
44987;SDS011;35735;52.226;21.254;2022-10-16T15:06:25;9.50;;;8.00;;
44987;SDS011;35735;52.226;21.254;2022-10-16T15:11:25;9.88;;;7.80;;
44987;SDS011;35735;52.226;21.254;2022-10-16T15:16:26;8.93;;;7.55;;
44987;SDS011;35735;52.226;21.254;2022-10-16T15:21:28;9.77;;;7.75;;
44987;SDS011;35735;52.226;21.254;2022-10-16T15:26:31;11.45;;;8.38;;
44987;SDS011;35735;52.226;21.254;2022-10-16T15:31:32;10.40;;;7.60;;
44987;SDS011;35735;52.226;21.254;2022-10-16T15:36:33;9.57;;;7.93;;
44987;SDS011;35735;52.226;21.254;2022-10-16T15:41:36;11.25;;;8.70;;
44987;SDS011;35735;52.226;21.254;2022-10-16T15:46:36;13.27;;;8.88;;
44987;SDS011;35735;52.226;21.254;2022-10-16T15:51:37;10.93;;;8.30;;
44987;SDS011;35735;52.226;21.254;2022-10-16T15:56:40;12.27;;;8.45;;
44987;SDS011;35735;52.226;21.254;2022-10-16T16:01:40;9.23;;;8.32;;
44987;SDS011;35735;52.226;21.254;2022-10-16T16:06:41;12.40;;;8.52;;
44987;SDS011;35735;52.226;21.254;2022-10-16T16:11:42;11.80;;;8.85;;
44987;SDS011;35735;52.226;21.254;2022-10-16T16:16:42;11.50;;;8.40;;
44987;SDS011;35735;52.226;21.254;2022-10-16T16:21:43;13.68;;;9.40;;
44987;SDS011;35735;52.226;21.254;2022-10-16T16:26:43;14.23;;;9.40;;
44987;SDS011;35735;52.226;21.254;2022-10-16T16:31:44;13.77;;;9.23;;
44987;SDS011;35735;52.226;21.254;2022-10-16T16:36:44;12.60;;;10.35;;
44987;SDS011;35735;52.226;21.254;2022-10-16T16:41:45;14.45;;;11.32;;
44987;SDS011;35735;52.226;21.254;2022-10-16T16:46:46;21.42;;;10.85;;
44987;SDS011;35735;52.226;21.254;2022-10-16T16:51:46;14.32;;;10.60;;
44987;SDS011;35735;52.226;21.254;2022-10-16T16:56:47;16.25;;;10.98;;
44987;SDS011;35735;52.226;21.254;2022-10-16T17:01:48;23.67;;;11.65;;
44987;SDS011;35735;52.226;21.254;2022-10-16T17:06:49;12.65;;;10.70;;
44987;SDS011;35735;52.226;21.254;2022-10-16T17:11:49;18.40;;;12.30;;
44987;SDS011;35735;52.226;21.254;2022-10-16T17:16:51;17.80;;;11.27;;
44987;SDS011;35735;52.226;21.254;2022-10-16T17:21:52;18.05;;;11.95;;
44987;SDS011;35735;52.226;21.254;2022-10-16T17:26:52;16.83;;;11.50;;
44987;SDS011;35735;52.226;21.254;2022-10-16T17:31:54;17.00;;;11.80;;
44987;SDS011;35735;52.226;21.254;2022-10-16T17:36:55;14.23;;;11.70;;
44987;SDS011;35735;52.226;21.254;2022-10-16T17:41:56;16.87;;;12.05;;
44987;SDS011;35735;52.226;21.254;2022-10-16T17:46:56;17.40;;;11.82;;
44987;SDS011;35735;52.226;21.254;2022-10-16T17:51:57;14.70;;;11.88;;
44987;SDS011;35735;52.226;21.254;2022-10-16T17:56:57;17.98;;;12.65;;
44987;SDS011;35735;52.226;21.254;2022-10-16T18:01:58;18.60;;;13.18;;
44987;SDS011;35735;52.226;21.254;2022-10-16T18:06:59;17.30;;;13.65;;
44987;SDS011;35735;52.226;21.254;2022-10-16T18:11:59;16.35;;;12.60;;
44987;SDS011;35735;52.226;21.254;2022-10-16T18:17:00;21.95;;;14.07;;
44987;SDS011;35735;52.226;21.254;2022-10-16T18:22:00;19.83;;;13.10;;
44987;SDS011;35735;52.226;21.254;2022-10-16T18:27:01;21.70;;;14.25;;
44987;SDS011;35735;52.226;21.254;2022-10-16T18:32:02;20.00;;;13.73;;
44987;SDS011;35735;52.226;21.254;2022-10-16T18:37:02;17.05;;;13.43;;
44987;SDS011;35735;52.226;21.254;2022-10-16T18:42:03;18.48;;;12.57;;
44987;SDS011;35735;52.226;21.254;2022-10-16T18:47:03;20.48;;;13.65;;
44987;SDS011;35735;52.226;21.254;2022-10-16T18:52:04;15.63;;;13.32;;
44987;SDS011;35735;52.226;21.254;2022-10-16T18:57:05;22.00;;;13.68;;
44987;SDS011;35735;52.226;21.254;2022-10-16T19:02:11;18.10;;;13.62;;
44987;SDS011;35735;52.226;21.254;2022-10-16T19:07:12;18.67;;;14.38;;
44987;SDS011;35735;52.226;21.254;2022-10-16T19:12:12;18.65;;;14.15;;
44987;SDS011;35735;52.226;21.254;2022-10-16T19:17:13;19.80;;;14.13;;
44987;SDS011;35735;52.226;21.254;2022-10-16T19:22:13;20.15;;;13.62;;
44987;SDS011;35735;52.226;21.254;2022-10-16T19:27:14;19.50;;;13.43;;
44987;SDS011;35735;52.226;21.254;2022-10-16T19:32:14;18.95;;;13.73;;
44987;SDS011;35735;52.226;21.254;2022-10-16T19:37:15;17.55;;;13.55;;
44987;SDS011;35735;52.226;21.254;2022-10-16T19:42:16;17.55;;;13.55;;
44987;SDS011;35735;52.226;21.254;2022-10-16T19:47:16;19.35;;;14.52;;
44987;SDS011;35735;52.226;21.254;2022-10-16T19:52:17;21.45;;;15.13;;
44987;SDS011;35735;52.226;21.254;2022-10-16T19:57:17;19.12;;;14.25;;
44987;SDS011;35735;52.226;21.254;2022-10-16T20:02:18;17.27;;;14.25;;
44987;SDS011;35735;52.226;21.254;2022-10-16T20:07:18;18.67;;;15.15;;
44987;SDS011;35735;52.226;21.254;2022-10-16T20:12:19;17.10;;;13.88;;
44987;SDS011;35735;52.226;21.254;2022-10-16T20:17:19;17.92;;;13.98;;
44987;SDS011;35735;52.226;21.254;2022-10-16T20:22:20;18.05;;;13.75;;
44987;SDS011;35735;52.226;21.254;2022-10-16T20:27:20;18.05;;;13.65;;
44987;SDS011;35735;52.226;21.254;2022-10-16T20:32:21;19.02;;;13.88;;
44987;SDS011;35735;52.226;21.254;2022-10-16T20:37:22;17.48;;;12.90;;
44987;SDS011;35735;52.226;21.254;2022-10-16T20:42:22;17.80;;;13.70;;
44987;SDS011;35735;52.226;21.254;2022-10-16T20:47:23;15.93;;;13.30;;
44987;SDS011;35735;52.226;21.254;2022-10-16T20:52:23;18.50;;;13.70;;
44987;SDS011;35735;52.226;21.254;2022-10-16T20:57:24;17.67;;;13.77;;
44987;SDS011;35735;52.226;21.254;2022-10-16T21:02:25;17.42;;;13.48;;
44987;SDS011;35735;52.226;21.254;2022-10-16T21:07:25;21.10;;;13.70;;
44987;SDS011;35735;52.226;21.254;2022-10-16T21:12:27;16.05;;;13.27;;
44987;SDS011;35735;52.226;21.254;2022-10-16T21:17:27;19.50;;;15.00;;
44987;SDS011;35735;52.226;21.254;2022-10-16T21:22:28;16.75;;;13.45;;
44987;SDS011;35735;52.226;21.254;2022-10-16T21:27:29;19.35;;;13.30;;
44987;SDS011;35735;52.226;21.254;2022-10-16T21:32:35;19.80;;;13.95;;
44987;SDS011;35735;52.226;21.254;2022-10-16T21:37:36;18.55;;;13.73;;
44987;SDS011;35735;52.226;21.254;2022-10-16T21:42:37;18.80;;;14.27;;
44987;SDS011;35735;52.226;21.254;2022-10-16T21:47:37;17.30;;;13.50;;
44987;SDS011;35735;52.226;21.254;2022-10-16T21:52:38;18.40;;;14.07;;
44987;SDS011;35735;52.226;21.254;2022-10-16T21:57:38;19.27;;;14.10;;
44987;SDS011;35735;52.226;21.254;2022-10-16T22:02:39;16.02;;;13.70;;
44987;SDS011;35735;52.226;21.254;2022-10-16T22:07:40;18.35;;;13.60;;
44987;SDS011;35735;52.226;21.254;2022-10-16T22:12:40;20.40;;;13.68;;
44987;SDS011;35735;52.226;21.254;2022-10-16T22:17:41;15.63;;;13.60;;
44987;SDS011;35735;52.226;21.254;2022-10-16T22:22:41;18.83;;;13.57;;
44987;SDS011;35735;52.226;21.254;2022-10-16T22:27:42;19.12;;;12.95;;
44987;SDS011;35735;52.226;21.254;2022-10-16T22:32:42;18.73;;;13.18;;
44987;SDS011;35735;52.226;21.254;2022-10-16T22:37:43;17.52;;;13.40;;
44987;SDS011;35735;52.226;21.254;2022-10-16T22:42:43;17.62;;;13.68;;
44987;SDS011;35735;52.226;21.254;2022-10-16T22:47:44;18.15;;;13.98;;
44987;SDS011;35735;52.226;21.254;2022-10-16T22:52:44;17.52;;;13.55;;
44987;SDS011;35735;52.226;21.254;2022-10-16T22:57:45;17.60;;;12.60;;
44987;SDS011;35735;52.226;21.254;2022-10-16T23:02:46;15.13;;;12.80;;
44987;SDS011;35735;52.226;21.254;2022-10-16T23:07:46;14.65;;;12.13;;
44987;SDS011;35735;52.226;21.254;2022-10-16T23:12:47;16.65;;;12.52;;
44987;SDS011;35735;52.226;21.254;2022-10-16T23:17:47;17.65;;;12.43;;
44987;SDS011;35735;52.226;21.254;2022-10-16T23:22:48;14.60;;;12.13;;
44987;SDS011;35735;52.226;21.254;2022-10-16T23:27:49;18.75;;;12.55;;
44987;SDS011;35735;52.226;21.254;2022-10-16T23:32:49;16.45;;;12.60;;
44987;SDS011;35735;52.226;21.254;2022-10-16T23:37:50;15.95;;;11.68;;
44987;SDS011;35735;52.226;21.254;2022-10-16T23:42:50;16.95;;;12.37;;
44987;SDS011;35735;52.226;21.254;2022-10-16T23:47:51;16.87;;;12.65;;
44987;SDS011;35735;52.226;21.254;2022-10-16T23:52:51;15.52;;;13.00;;
44987;SDS011;35735;52.226;21.254;2022-10-16T23:57:52;15.70;;;12.88;;
